Flight Track Log - Related Links

Times and Time Zones

All times are in EDT time to prevent confusion due to time zone crossing. See the AWI3881 flight status page for this flight to view local times or setup timezone preferences in your user account.

Time Position Orientation Groundspeed Altitude Reporting Facility
EDT Latitude Longitude Course Direction KTS MPH feet Rate Location/Type
Thu 07:16:54 PM 42.3833 -71.0167 295° West 159 183 600  Level KA90
Thu 07:18:06 PM 42.4061 -71.0828 295° West 181 208 3,200 2,015 Climbing Boston Center
Thu 07:19:08 PM 42.4075 -71.1725 271° West 246 283 5,100 2,293 Climbing Boston Center
Thu 07:20:09 PM 42.4003 -71.2756 265° West 254 292 7,900 2,244 Climbing Boston Center
Thu 07:21:11 PM 42.3931 -71.3786 265° West 273 314 9,700 1,694 Climbing Boston Center
Thu 07:22:13 PM 42.3858 -71.4872 265° West 286 329 11,400 1,452 Climbing Boston Center
Thu 07:23:15 PM 42.3761 -71.6172 264° West 321 369 12,700 1,452 Climbing Boston Center
Thu 07:24:17 PM 42.3681 -71.7431 265° West 332 382 14,400 1,645 Climbing Boston Center
Thu 07:25:19 PM 42.3586 -71.8786 265° West 334 384 16,100 1,355 Climbing Boston Center
Thu 07:26:21 PM 42.3489 -72.0028 264° West 334 384 17,200 1,113 Climbing Boston Center
Thu 07:27:23 PM 42.3389 -72.1361 264° West 337 388 18,400 968 Climbing Boston Center
Thu 07:28:25 PM 42.3300 -72.2567 264° West 344 396 19,200 823 Climbing Boston Center
Thu 07:29:27 PM 42.3208 -72.3897 265° West 347 399 20,100 871 Climbing Boston Center
Thu 07:30:29 PM 42.3106 -72.5228 264° West 352 405 21,000 871 Climbing Boston Center
Thu 07:31:31 PM 42.3003 -72.6589 264° West 356 410 21,900 1,016 Climbing Boston Center
Thu 07:32:33 PM 42.2892 -72.7961 264° West 360 414 23,100 1,073 Climbing Boston Center
Thu 07:33:34 PM 42.2781 -72.9311 264° West 359 413 24,100 976 Climbing Boston Center
Thu 07:34:36 PM 42.2681 -73.0644 264° West 354 407 25,100 871 Climbing Boston Center
Thu 07:35:38 PM 42.2567 -73.1967 263° West 352 405 25,900 435 Climbing Boston Center
Thu 07:36:40 PM 42.2447 -73.3528 264° West 354 407 26,000 48 Climbing Boston Center
Thu 07:37:42 PM 42.2322 -73.4903 263° West 367 422 26,000  Level Boston Center
Thu 07:38:44 PM 42.2208 -73.6283 264° West 368 423 26,000  Level Boston Center
Thu 07:39:46 PM 42.2078 -73.7761 263° West 371 427 26,000  Level Boston Center
Thu 07:40:47 PM 42.1964 -73.9164 264° West 371 427 26,000  Level Boston Center
Thu 07:41:49 PM 42.1828 -74.0550 262° West 372 428 26,000  Level Boston Center
Thu 07:42:51 PM 42.1703 -74.1942 263° West 372 428 26,000  Level Boston Center
Thu 07:43:53 PM 42.1575 -74.3336 263° West 372 428 26,000  Level Boston Center
Thu 07:44:55 PM 42.1447 -74.4742 263° West 372 428 26,000  Level Boston Center
Thu 07:45:56 PM 42.1286 -74.6433 263° West 374 430 26,000  Level Boston Center
Thu 07:46:58 PM 42.1158 -74.7836 263° West 374 430 26,000  Level Boston Center
Thu 07:48:00 PM 42.1014 -74.9239 262° West 375 432 26,000  Level Boston Center
Thu 07:49:02 PM 42.0881 -75.0642 263° West 375 432 26,000  Level Boston Center
Thu 07:50:04 PM 42.0733 -75.2128 262° West 377 434 26,000  Level Boston Center
Thu 07:51:05 PM 42.0586 -75.3511 262° West 377 434 26,000  Level Boston Center
Thu 07:51:53 PM 42.0428 -75.4681 260° West 389 448 26,000  Level New Center
Thu 07:52:54 PM 42.0267 -75.6092 261° West 389 448 26,000  Level New Center
Thu 07:53:52 PM 42.0064 -75.7472 259° West 389 448 26,000  Level New Center
Thu 07:54:52 PM 41.9900 -75.8883 261° West 389 448 26,000  Level New Center
Thu 07:55:53 PM 41.9714 -76.0292 260° West 389 448 26,000 -50 Level New Center
Thu 07:56:53 PM 41.9525 -76.1700 260° West 389 448 25,900 -600 Descending New Center
Thu 07:57:53 PM 41.9314 -76.3131 259° West 389 448 24,800 -1,046 Descending New Center
Thu 07:58:42 PM 41.9144 -76.4328 259° West 393 452 24,000 -429 Descending Cleveland Center
Thu 07:59:45 PM 41.8964 -76.5764 260° West 393 452 24,000  Level Cleveland Center
Thu 08:00:47 PM 41.8756 -76.7150 259° West 384 442 24,000  Level Cleveland Center
Thu 08:01:49 PM 41.8572 -76.8514 260° West 378 435 24,000  Level Cleveland Center
Thu 08:02:51 PM 41.8381 -76.9861 259° West 373 429 24,000  Level Cleveland Center
Thu 08:03:53 PM 41.8069 -77.1453 255° West 371 427 24,000  Level Cleveland Center
Thu 08:04:56 PM 41.7628 -77.2722 245° Southwest 374 430 24,000  Level Cleveland Center
Thu 08:05:58 PM 41.7172 -77.3986 244° Southwest 374 430 24,000  Level Cleveland Center
Thu 08:07:00 PM 41.6694 -77.5361 245° Southwest 378 435 24,000  Level Cleveland Center
Thu 08:08:02 PM 41.6242 -77.6608 244° Southwest 380 437 24,000 -484 Level Cleveland Center
Thu 08:09:04 PM 41.5781 -77.7875 244° Southwest 379 436 23,000 -968 Descending Cleveland Center
Thu 08:10:06 PM 41.5325 -77.9150 245° Southwest 382 440 22,000 -816 Descending Cleveland Center
Thu 08:11:09 PM 41.4811 -78.0672 246° West 381 438 21,300 -816 Descending Cleveland Center
Thu 08:12:11 PM 41.4411 -78.1964 248° West 381 438 20,300 -968 Descending Cleveland Center
Thu 08:13:13 PM 41.4008 -78.3256 247° West 383 441 19,300 -968 Descending Cleveland Center
Thu 08:14:15 PM 41.3608 -78.4472 246° West 383 441 18,300 -629 Descending Cleveland Center
Thu 08:15:17 PM 41.3122 -78.6017 247° West 380 437 18,000 -145 Descending Cleveland Center
Thu 08:16:19 PM 41.2728 -78.7308 248° West 377 434 18,000  Level Cleveland Center
Thu 08:17:22 PM 41.2311 -78.8531 246° West 368 423 18,000  Level Cleveland Center
Thu 08:18:24 PM 41.1928 -78.9725 247° West 368 423 18,000 -48 Level Cleveland Center
Thu 08:19:26 PM 41.1444 -79.1183 246° West 366 421 17,900 -581 Descending Cleveland Center
Thu 08:20:28 PM 41.1092 -79.2258 246° West 366 421 16,800 -1,210 Descending Cleveland Center
Thu 08:21:30 PM 41.0694 -79.3472 247° West 361 415 15,400 -1,500 Descending Cleveland Center
Thu 08:22:32 PM 41.0236 -79.4886 247° West 349 402 13,700 -1,500 Descending Cleveland Center
Thu 08:23:34 PM 40.9858 -79.6025 246° West 341 392 12,300 -1,344 Descending Cleveland Center
Thu 08:24:37 PM 40.9364 -79.7053 238° Southwest 333 383 10,900 -1,104 Descending Cleveland Center
Thu 08:25:39 PM 40.8639 -79.7719 215° Southwest 325 374 10,000 -1,065 Descending Cleveland Center
Thu 08:26:41 PM 40.7961 -79.8372 216° Southwest 306 352 8,700 -1,452 Descending Cleveland Center
Thu 08:27:43 PM 40.7317 -79.8986 216° Southwest 292 336 7,000 -1,306 Descending Cleveland Center
Thu 08:28:45 PM 40.6683 -79.9567 215° Southwest 279 321 6,000 -484 Descending Cleveland Center
Thu 08:29:47 PM 40.5933 -79.9822 195° South 284 327 6,000 -720 Level Cleveland Center
Thu 08:30:50 PM 40.5031 -79.9819 180° South 263 303 4,500 -1,392 Descending Cleveland Center
Thu 08:31:52 PM 40.4803 -80.0508 247° West 220 253 3,100 -919 Descending Cleveland Center
Thu 08:32:54 PM 40.4836 -80.1117 274° West 170 196 2,600 -581 Descending Cleveland Center
Thu 08:33:56 PM 40.4844 -80.1636 271° West 149 171 1,900 -677 Descending Cleveland Center
Thu 08:35:00 PM 40.4914 -80.2327 270° West  Level Estimated

Login

Don't have an account? Register now (free) for customized features, flight alerts, and more!